• Join FlightAware (Why Join?)
  • Login
  • US Flag 
02:41AM EDT


 

Airport Tracker/Info


-or-


 

Live Flight TrackerFlight Track Log ✈ JZA8474 ✈ 07-May-2013 ✈ CYCG - CYYC

Flight Track Log - Related Links

Times and Time Zones

All times are in EDT time to prevent confusion due to time zone crossing. See the JZA8474 flight status page for this flight to view local times or setup timezone preferences in your user account.

Time Position Orientation Groundspeed Altitude Reporting Facility
EDT Latitude Longitude Course Direction KTS MPH feet Rate Location/Type
02:53PM 49.5520 -117.2041 45° Northeast  Level FlightAware Approximate
02:54PM 49.5964 -117.1344 45° Northeast  Level FlightAware Approximate
02:54PM 49.4333 -117.3833 47° Northeast 190 219 11,000  Level Vancouver Center
02:55PM 49.6408 -117.0646 46° Northeast  Level FlightAware Approximate
02:55PM 49.4833 -117.3000 47° Northeast 200 230 12,400  Level Vancouver Center
02:56PM 49.6830 -116.9916 49° Northeast  Level FlightAware Approximate
02:56PM 49.5167 -117.2333 52° Northeast 210 242 13,600  Level Vancouver Center
02:57PM 49.7246 -116.9178 49° Northeast  Level FlightAware Approximate
02:57PM 49.5667 -117.1500 47° Northeast 210 242 14,900  Level Vancouver Center
02:58PM 49.7662 -116.8438 49° Northeast  Level FlightAware Approximate
02:58PM 49.6167 -117.1000 33° Northeast 210 242 15,900  Level Vancouver Center
02:59PM 49.8080 -116.7701 47° Northeast  Level FlightAware Approximate
02:59PM 49.6333 -117.0333 69° East 210 242 16,800  Level Vancouver Center
03:00PM 49.6833 -116.9500 47° Northeast 220 253 17,800 900 Climbing Vancouver Center
03:01PM 49.7167 -116.9000 44° Northeast 220 253 18,700 840 Climbing Vancouver Center
03:02PM 49.7667 -116.8333 41° Northeast 220 253 19,500 720 Climbing Vancouver Center
03:03PM 49.8000 -116.7500 58° Northeast 220 253 20,200 840 Climbing Vancouver Center
03:04PM 49.8500 -116.7000 33° Northeast 220 253 21,200 840 Climbing Vancouver Center
03:05PM 49.8833 -116.6167 58° Northeast 220 253 21,900 600 Climbing Vancouver Center
03:06PM 49.9333 -116.5500 41° Northeast 230 265 22,500 540 Climbing Vancouver Center
03:07PM 49.9667 -116.4667 58° Northeast 230 265 23,000 240 Climbing Vancouver Center
03:08PM 50.0167 -116.3833 47° Northeast 250 288 23,000  Level Vancouver Center
03:09PM 50.0667 -116.3000 47° Northeast 260 299 23,000  Level Vancouver Center
03:10PM 50.1167 -116.2333 41° Northeast 270 311 23,000  Level Vancouver Center
03:11PM 50.1667 -116.1333 52° Northeast 270 311 23,000  Level Vancouver Center
03:12PM 50.2333 -116.0333 44° Northeast 280 322 23,000  Level Vancouver Center
03:12PM 50.2333 -116.0667 270° West 270 311 23,000  Level Edmonton Center
03:13PM 50.2833 -115.9667 52° Northeast 270 311 23,000  Level Edmonton Center
03:14PM 50.3333 -115.8833 47° Northeast 280 322 23,000  Level Edmonton Center
03:15PM 50.3833 -115.7833 52° Northeast 270 311 23,000  Level Edmonton Center
03:16PM 50.4333 -115.7167 40° Northeast 270 311 23,000  Level Edmonton Center
03:17PM 50.4833 -115.6167 52° Northeast 280 322 23,000  Level Edmonton Center
03:18PM 50.5333 -115.5167 52° Northeast 280 322 23,000 -600 Level Edmonton Center
03:19PM 50.5667 -115.4167 62° Northeast 290 334 21,900 -1,320 Descending Edmonton Center
03:20PM 50.6333 -115.3000 48° Northeast 310 357 20,400 -1,500 Descending Edmonton Center
03:21PM 50.6833 -115.2167 47° Northeast 310 357 19,000 -1,620 Descending Edmonton Center
03:22PM 50.7333 -115.0833 59° Northeast 310 357 18,000 -1,440 Descending Vancouver Center
03:23PM 50.7667 -114.9667 66° East 310 357 16,800 -1,200 Descending Vancouver Center
03:24PM 50.8333 -114.8833 38° Northeast 310 357 15,600 -1,440 Descending Vancouver Center
03:24PM 50.8500 -114.8667 32° Northeast 300 345 14,700 -1,140 Descending Edmonton Center
03:25PM 50.8500 -114.7333 90° East 300 345 14,000 -780 Descending Edmonton Center
03:26PM 50.8667 -114.6333 75° East 290 334 13,200 -1,140 Descending Edmonton Center
03:27PM 50.8667 -114.4667 90° East 300 345 11,800 -1,440 Descending Edmonton Center
03:28PM 50.9000 -114.3667 62° Northeast 290 334 10,400 -1,440 Descending Edmonton Center
03:29PM 50.9500 -114.2667 52° Northeast 240 276 9,000 -1,440 Descending Edmonton Center
03:30PM 50.9667 -114.2000 68° East 220 253 7,600 -1,500 Descending Edmonton Center
03:31PM 51.0000 -114.1000 62° Northeast 200 230 6,000 -1,080 Descending Edmonton Center
03:32PM 51.0167 -114.0500 62° Northeast 150 173 5,500 -960 Descending Edmonton Center
03:33PM 51.0500 -114.0500 360° North 110 127 4,100 -1,020 Descending Edmonton Center
03:34PM 51.0667 -114.0333 32° Northeast 110 127 3,500 -300 Descending Edmonton Center
03:35PM 51.1000 -114.0333 360° North 60 69 3,600 60 Climbing Edmonton Center